sensor_id;sensor_type;location;lat;lon;timestamp;temperature;humidity
51855;DHT22;37895;53.240;6.572;2023-08-07T00:00:33;15.70;99.90
51855;DHT22;37895;53.240;6.572;2023-08-07T00:02:59;15.70;99.90
51855;DHT22;37895;53.240;6.572;2023-08-07T00:05:25;15.70;99.90
51855;DHT22;37895;53.240;6.572;2023-08-07T00:07:50;15.70;99.90
51855;DHT22;37895;53.240;6.572;2023-08-07T00:10:16;15.70;99.90
51855;DHT22;37895;53.240;6.572;2023-08-07T00:12:42;15.70;99.90
51855;DHT22;37895;53.240;6.572;2023-08-07T00:15:09;15.70;99.90
51855;DHT22;37895;53.240;6.572;2023-08-07T00:17:35;15.70;99.90
51855;DHT22;37895;53.240;6.572;2023-08-07T00:20:01;15.60;99.90
51855;DHT22;37895;53.240;6.572;2023-08-07T00:22:26;15.70;99.90
51855;DHT22;37895;53.240;6.572;2023-08-07T00:24:52;15.70;99.90
51855;DHT22;37895;53.240;6.572;2023-08-07T00:27:18;15.60;99.90
51855;DHT22;37895;53.240;6.572;2023-08-07T00:29:43;15.60;99.90
51855;DHT22;37895;53.240;6.572;2023-08-07T00:32:09;15.50;99.90
51855;DHT22;37895;53.240;6.572;2023-08-07T00:34:34;15.40;99.90
51855;DHT22;37895;53.240;6.572;2023-08-07T00:37:00;15.40;99.90
51855;DHT22;37895;53.240;6.572;2023-08-07T00:39:26;15.40;99.90
51855;DHT22;37895;53.240;6.572;2023-08-07T00:41:51;15.40;99.90
51855;DHT22;37895;53.240;6.572;2023-08-07T00:44:17;15.30;99.90
51855;DHT22;37895;53.240;6.572;2023-08-07T00:46:43;15.30;99.90
51855;DHT22;37895;53.240;6.572;2023-08-07T00:49:10;15.20;99.90
51855;DHT22;37895;53.240;6.572;2023-08-07T00:51:37;15.30;99.90
51855;DHT22;37895;53.240;6.572;2023-08-07T00:54:04;15.30;99.90
51855;DHT22;37895;53.240;6.572;2023-08-07T00:56:30;15.30;99.90
51855;DHT22;37895;53.240;6.572;2023-08-07T00:59:00;15.30;99.90
51855;DHT22;37895;53.240;6.572;2023-08-07T01:01:26;15.40;99.90
51855;DHT22;37895;53.240;6.572;2023-08-07T01:03:52;15.40;99.90
51855;DHT22;37895;53.240;6.572;2023-08-07T01:06:18;15.30;99.90
51855;DHT22;37895;53.240;6.572;2023-08-07T01:08:45;15.30;99.90
51855;DHT22;37895;53.240;6.572;2023-08-07T01:13:54;15.20;99.90
51855;DHT22;37895;53.240;6.572;2023-08-07T01:18:57;15.20;99.90
51855;DHT22;37895;53.240;6.572;2023-08-07T01:21:23;15.20;99.90
51855;DHT22;37895;53.240;6.572;2023-08-07T01:23:49;15.10;99.90
51855;DHT22;37895;53.240;6.572;2023-08-07T01:26:18;15.10;99.90
51855;DHT22;37895;53.240;6.572;2023-08-07T01:29:11;15.10;99.90
51855;DHT22;37895;53.240;6.572;2023-08-07T01:31:39;15.00;99.90
51855;DHT22;37895;53.240;6.572;2023-08-07T01:34:08;15.00;99.90
51855;DHT22;37895;53.240;6.572;2023-08-07T01:36:37;15.00;99.90
51855;DHT22;37895;53.240;6.572;2023-08-07T01:39:05;15.00;99.90
51855;DHT22;37895;53.240;6.572;2023-08-07T01:41:32;14.90;99.90
51855;DHT22;37895;53.240;6.572;2023-08-07T01:43:59;14.90;99.90
51855;DHT22;37895;53.240;6.572;2023-08-07T01:46:25;14.90;99.90
51855;DHT22;37895;53.240;6.572;2023-08-07T01:48:50;14.90;99.90
51855;DHT22;37895;53.240;6.572;2023-08-07T01:51:16;14.90;99.90
51855;DHT22;37895;53.240;6.572;2023-08-07T01:53:41;14.90;99.90
51855;DHT22;37895;53.240;6.572;2023-08-07T01:56:07;14.90;99.90
51855;DHT22;37895;53.240;6.572;2023-08-07T01:58:33;14.90;99.90
51855;DHT22;37895;53.240;6.572;2023-08-07T02:00:58;14.80;99.90
51855;DHT22;37895;53.240;6.572;2023-08-07T02:03:24;14.80;99.90
51855;DHT22;37895;53.240;6.572;2023-08-07T02:05:50;14.80;99.90
51855;DHT22;37895;53.240;6.572;2023-08-07T02:08:15;14.80;99.90
51855;DHT22;37895;53.240;6.572;2023-08-07T02:10:41;14.80;99.90
51855;DHT22;37895;53.240;6.572;2023-08-07T02:13:06;14.70;99.90
51855;DHT22;37895;53.240;6.572;2023-08-07T02:15:32;14.70;99.90
51855;DHT22;37895;53.240;6.572;2023-08-07T02:17:58;14.70;99.90
51855;DHT22;37895;53.240;6.572;2023-08-07T02:20:23;14.70;99.90
51855;DHT22;37895;53.240;6.572;2023-08-07T02:22:49;14.70;99.90
51855;DHT22;37895;53.240;6.572;2023-08-07T02:25:15;14.70;99.90
51855;DHT22;37895;53.240;6.572;2023-08-07T02:27:41;14.70;99.90
51855;DHT22;37895;53.240;6.572;2023-08-07T02:30:06;14.70;99.90
51855;DHT22;37895;53.240;6.572;2023-08-07T02:32:32;14.70;99.90
51855;DHT22;37895;53.240;6.572;2023-08-07T02:34:58;14.80;99.90
51855;DHT22;37895;53.240;6.572;2023-08-07T02:37:24;14.80;99.90
51855;DHT22;37895;53.240;6.572;2023-08-07T02:39:50;14.80;99.90
51855;DHT22;37895;53.240;6.572;2023-08-07T02:42:15;14.90;99.90
51855;DHT22;37895;53.240;6.572;2023-08-07T02:44:41;14.90;99.90
51855;DHT22;37895;53.240;6.572;2023-08-07T02:47:06;15.00;99.90
51855;DHT22;37895;53.240;6.572;2023-08-07T02:49:32;15.00;99.90
51855;DHT22;37895;53.240;6.572;2023-08-07T02:51:58;15.00;99.90
51855;DHT22;37895;53.240;6.572;2023-08-07T02:54:23;15.00;99.90
51855;DHT22;37895;53.240;6.572;2023-08-07T02:56:49;15.00;99.90
51855;DHT22;37895;53.240;6.572;2023-08-07T02:59:15;15.00;99.90
51855;DHT22;37895;53.240;6.572;2023-08-07T03:01:43;15.00;99.90
51855;DHT22;37895;53.240;6.572;2023-08-07T03:04:08;15.10;99.90
51855;DHT22;37895;53.240;6.572;2023-08-07T03:06:34;15.00;99.90
51855;DHT22;37895;53.240;6.572;2023-08-07T03:08:59;15.00;99.90
51855;DHT22;37895;53.240;6.572;2023-08-07T03:11:25;15.00;99.90
51855;DHT22;37895;53.240;6.572;2023-08-07T03:13:51;14.90;99.90
51855;DHT22;37895;53.240;6.572;2023-08-07T03:16:16;14.90;99.90
51855;DHT22;37895;53.240;6.572;2023-08-07T03:18:42;14.90;99.90
51855;DHT22;37895;53.240;6.572;2023-08-07T03:21:08;14.90;99.90
51855;DHT22;37895;53.240;6.572;2023-08-07T03:23:34;14.90;99.90
51855;DHT22;37895;53.240;6.572;2023-08-07T03:26:06;15.00;99.90
51855;DHT22;37895;53.240;6.572;2023-08-07T03:28:33;15.00;99.90
51855;DHT22;37895;53.240;6.572;2023-08-07T03:30:59;15.00;99.90
51855;DHT22;37895;53.240;6.572;2023-08-07T03:33:25;15.00;99.90
51855;DHT22;37895;53.240;6.572;2023-08-07T03:35:51;15.00;99.90
51855;DHT22;37895;53.240;6.572;2023-08-07T03:38:16;14.90;99.90
51855;DHT22;37895;53.240;6.572;2023-08-07T03:40:42;14.90;99.90
51855;DHT22;37895;53.240;6.572;2023-08-07T03:43:07;15.00;99.90
51855;DHT22;37895;53.240;6.572;2023-08-07T03:45:33;15.00;99.90
51855;DHT22;37895;53.240;6.572;2023-08-07T03:47:59;15.00;99.90
51855;DHT22;37895;53.240;6.572;2023-08-07T03:50:24;15.00;99.90
51855;DHT22;37895;53.240;6.572;2023-08-07T03:52:50;15.00;99.90
51855;DHT22;37895;53.240;6.572;2023-08-07T03:55:16;14.90;99.90
51855;DHT22;37895;53.240;6.572;2023-08-07T03:57:41;14.90;99.90
51855;DHT22;37895;53.240;6.572;2023-08-07T04:00:07;14.90;99.90
51855;DHT22;37895;53.240;6.572;2023-08-07T04:02:33;14.90;99.90
51855;DHT22;37895;53.240;6.572;2023-08-07T04:04:58;14.80;99.90
51855;DHT22;37895;53.240;6.572;2023-08-07T04:07:24;14.80;99.90
51855;DHT22;37895;53.240;6.572;2023-08-07T04:09:50;14.80;99.90
51855;DHT22;37895;53.240;6.572;2023-08-07T04:12:15;14.80;99.90
51855;DHT22;37895;53.240;6.572;2023-08-07T04:14:41;14.80;99.90
51855;DHT22;37895;53.240;6.572;2023-08-07T04:17:07;14.80;99.90
51855;DHT22;37895;53.240;6.572;2023-08-07T04:19:32;14.80;99.90
51855;DHT22;37895;53.240;6.572;2023-08-07T04:21:58;14.80;99.90
51855;DHT22;37895;53.240;6.572;2023-08-07T04:24:23;14.70;99.90
51855;DHT22;37895;53.240;6.572;2023-08-07T04:26:49;14.80;99.90
51855;DHT22;37895;53.240;6.572;2023-08-07T04:29:15;14.80;99.90
51855;DHT22;37895;53.240;6.572;2023-08-07T04:31:40;14.80;99.90
51855;DHT22;37895;53.240;6.572;2023-08-07T04:34:06;14.80;99.90
51855;DHT22;37895;53.240;6.572;2023-08-07T04:36:31;14.80;99.90
51855;DHT22;37895;53.240;6.572;2023-08-07T04:38:58;14.70;99.90
51855;DHT22;37895;53.240;6.572;2023-08-07T04:41:24;14.70;99.90
51855;DHT22;37895;53.240;6.572;2023-08-07T04:43:49;14.70;99.90
51855;DHT22;37895;53.240;6.572;2023-08-07T04:46:15;14.70;99.90
51855;DHT22;37895;53.240;6.572;2023-08-07T04:48:41;14.70;99.90
51855;DHT22;37895;53.240;6.572;2023-08-07T04:51:06;14.70;99.90
51855;DHT22;37895;53.240;6.572;2023-08-07T04:53:32;14.70;99.90
51855;DHT22;37895;53.240;6.572;2023-08-07T04:55:59;14.70;99.90
51855;DHT22;37895;53.240;6.572;2023-08-07T04:58:25;14.70;99.90
51855;DHT22;37895;53.240;6.572;2023-08-07T05:00:57;14.70;99.90
51855;DHT22;37895;53.240;6.572;2023-08-07T05:03:24;14.80;99.90
51855;DHT22;37895;53.240;6.572;2023-08-07T05:05:50;14.80;99.90
51855;DHT22;37895;53.240;6.572;2023-08-07T05:08:16;14.90;99.90
51855;DHT22;37895;53.240;6.572;2023-08-07T05:10:42;15.00;99.90
51855;DHT22;37895;53.240;6.572;2023-08-07T05:13:08;15.00;99.90
51855;DHT22;37895;53.240;6.572;2023-08-07T05:15:33;15.10;99.90
51855;DHT22;37895;53.240;6.572;2023-08-07T05:17:59;15.20;99.90
51855;DHT22;37895;53.240;6.572;2023-08-07T05:20:25;15.30;99.90
51855;DHT22;37895;53.240;6.572;2023-08-07T05:22:51;15.30;99.90
51855;DHT22;37895;53.240;6.572;2023-08-07T05:25:17;15.30;99.90
51855;DHT22;37895;53.240;6.572;2023-08-07T05:27:47;15.40;99.90
51855;DHT22;37895;53.240;6.572;2023-08-07T05:30:13;15.40;99.90
51855;DHT22;37895;53.240;6.572;2023-08-07T05:32:39;15.40;99.90
51855;DHT22;37895;53.240;6.572;2023-08-07T05:35:06;15.40;99.90
51855;DHT22;37895;53.240;6.572;2023-08-07T05:37:32;15.40;99.90
51855;DHT22;37895;53.240;6.572;2023-08-07T05:39:58;15.40;99.90
51855;DHT22;37895;53.240;6.572;2023-08-07T05:42:24;15.40;99.90
51855;DHT22;37895;53.240;6.572;2023-08-07T05:44:50;15.50;99.90
51855;DHT22;37895;53.240;6.572;2023-08-07T05:47:15;15.50;99.90
51855;DHT22;37895;53.240;6.572;2023-08-07T05:49:41;15.50;99.90
51855;DHT22;37895;53.240;6.572;2023-08-07T05:52:07;15.60;99.90
51855;DHT22;37895;53.240;6.572;2023-08-07T05:54:33;15.60;99.90
51855;DHT22;37895;53.240;6.572;2023-08-07T05:56:59;15.60;99.90
51855;DHT22;37895;53.240;6.572;2023-08-07T05:59:24;15.50;99.90
51855;DHT22;37895;53.240;6.572;2023-08-07T06:01:50;15.40;99.90
51855;DHT22;37895;53.240;6.572;2023-08-07T06:04:16;15.30;99.90
51855;DHT22;37895;53.240;6.572;2023-08-07T06:06:42;15.30;99.90
51855;DHT22;37895;53.240;6.572;2023-08-07T06:09:08;15.30;99.90
51855;DHT22;37895;53.240;6.572;2023-08-07T06:11:34;15.40;99.90
51855;DHT22;37895;53.240;6.572;2023-08-07T06:13:59;15.40;99.90
51855;DHT22;37895;53.240;6.572;2023-08-07T06:16:25;15.50;99.90
51855;DHT22;37895;53.240;6.572;2023-08-07T06:18:51;15.50;99.90
51855;DHT22;37895;53.240;6.572;2023-08-07T06:21:17;15.60;99.90
51855;DHT22;37895;53.240;6.572;2023-08-07T06:23:43;15.60;99.90
51855;DHT22;37895;53.240;6.572;2023-08-07T06:26:08;15.60;99.90
51855;DHT22;37895;53.240;6.572;2023-08-07T06:28:34;15.50;99.90
51855;DHT22;37895;53.240;6.572;2023-08-07T06:31:10;15.50;99.90
51855;DHT22;37895;53.240;6.572;2023-08-07T06:33:36;15.50;99.90
51855;DHT22;37895;53.240;6.572;2023-08-07T06:36:02;15.60;99.90
51855;DHT22;37895;53.240;6.572;2023-08-07T06:38:28;15.80;99.90
51855;DHT22;37895;53.240;6.572;2023-08-07T06:40:54;15.80;99.90
51855;DHT22;37895;53.240;6.572;2023-08-07T06:43:19;15.80;99.90
51855;DHT22;37895;53.240;6.572;2023-08-07T06:45:52;15.70;99.90
51855;DHT22;37895;53.240;6.572;2023-08-07T06:48:18;15.60;99.90
51855;DHT22;37895;53.240;6.572;2023-08-07T06:50:43;15.50;99.90
51855;DHT22;37895;53.240;6.572;2023-08-07T06:53:09;15.60;99.90
51855;DHT22;37895;53.240;6.572;2023-08-07T06:55:35;15.50;99.90
51855;DHT22;37895;53.240;6.572;2023-08-07T06:58:01;15.60;99.90
51855;DHT22;37895;53.240;6.572;2023-08-07T07:00:26;15.60;99.90
51855;DHT22;37895;53.240;6.572;2023-08-07T07:02:52;15.70;99.90
51855;DHT22;37895;53.240;6.572;2023-08-07T07:05:18;15.70;99.90
51855;DHT22;37895;53.240;6.572;2023-08-07T07:07:44;15.70;99.90
51855;DHT22;37895;53.240;6.572;2023-08-07T07:10:09;15.60;99.90
51855;DHT22;37895;53.240;6.572;2023-08-07T07:12:36;15.50;99.90
51855;DHT22;37895;53.240;6.572;2023-08-07T07:15:02;15.40;99.90
51855;DHT22;37895;53.240;6.572;2023-08-07T07:17:28;15.40;99.90
51855;DHT22;37895;53.240;6.572;2023-08-07T07:19:53;15.40;99.90
51855;DHT22;37895;53.240;6.572;2023-08-07T07:22:19;15.40;99.90
51855;DHT22;37895;53.240;6.572;2023-08-07T07:24:45;15.50;99.90
51855;DHT22;37895;53.240;6.572;2023-08-07T07:27:10;15.50;99.90
51855;DHT22;37895;53.240;6.572;2023-08-07T07:29:36;15.60;99.90
51855;DHT22;37895;53.240;6.572;2023-08-07T07:32:02;15.80;99.90
51855;DHT22;37895;53.240;6.572;2023-08-07T07:34:27;15.80;99.90
51855;DHT22;37895;53.240;6.572;2023-08-07T07:36:53;15.90;99.90
51855;DHT22;37895;53.240;6.572;2023-08-07T07:39:19;15.90;99.90
51855;DHT22;37895;53.240;6.572;2023-08-07T07:41:45;15.90;99.90
51855;DHT22;37895;53.240;6.572;2023-08-07T07:44:11;16.00;99.90
51855;DHT22;37895;53.240;6.572;2023-08-07T07:46:36;15.90;99.90
51855;DHT22;37895;53.240;6.572;2023-08-07T07:49:02;16.00;99.90
51855;DHT22;37895;53.240;6.572;2023-08-07T07:51:30;16.10;99.90
51855;DHT22;37895;53.240;6.572;2023-08-07T07:53:57;16.30;99.90
51855;DHT22;37895;53.240;6.572;2023-08-07T07:56:23;16.40;99.90
51855;DHT22;37895;53.240;6.572;2023-08-07T07:58:49;16.40;99.90
51855;DHT22;37895;53.240;6.572;2023-08-07T08:01:14;16.30;99.90
51855;DHT22;37895;53.240;6.572;2023-08-07T08:03:40;16.20;99.90
51855;DHT22;37895;53.240;6.572;2023-08-07T08:06:06;16.00;99.90
51855;DHT22;37895;53.240;6.572;2023-08-07T08:08:31;15.90;99.90
51855;DHT22;37895;53.240;6.572;2023-08-07T08:10:57;15.80;99.90
51855;DHT22;37895;53.240;6.572;2023-08-07T08:13:22;15.90;99.90
51855;DHT22;37895;53.240;6.572;2023-08-07T08:15:50;15.80;99.90
51855;DHT22;37895;53.240;6.572;2023-08-07T08:18:16;15.80;99.90
51855;DHT22;37895;53.240;6.572;2023-08-07T08:20:42;15.80;99.90
51855;DHT22;37895;53.240;6.572;2023-08-07T08:23:07;15.90;99.90
51855;DHT22;37895;53.240;6.572;2023-08-07T08:25:33;15.80;99.90
51855;DHT22;37895;53.240;6.572;2023-08-07T08:27:59;15.90;99.90
51855;DHT22;37895;53.240;6.572;2023-08-07T08:30:25;16.10;99.90
51855;DHT22;37895;53.240;6.572;2023-08-07T08:32:51;16.30;99.90
51855;DHT22;37895;53.240;6.572;2023-08-07T08:35:17;16.30;99.90
51855;DHT22;37895;53.240;6.572;2023-08-07T08:37:42;16.30;99.90
51855;DHT22;37895;53.240;6.572;2023-08-07T08:40:09;16.20;99.90
51855;DHT22;37895;53.240;6.572;2023-08-07T08:42:40;16.20;99.90
51855;DHT22;37895;53.240;6.572;2023-08-07T08:45:06;16.20;99.90
51855;DHT22;37895;53.240;6.572;2023-08-07T08:47:35;16.20;99.90
51855;DHT22;37895;53.240;6.572;2023-08-07T08:50:10;16.20;99.90
51855;DHT22;37895;53.240;6.572;2023-08-07T08:52:38;16.30;99.90
51855;DHT22;37895;53.240;6.572;2023-08-07T08:55:04;16.40;99.90
51855;DHT22;37895;53.240;6.572;2023-08-07T08:57:30;16.50;99.90
51855;DHT22;37895;53.240;6.572;2023-08-07T08:59:58;16.50;99.90
51855;DHT22;37895;53.240;6.572;2023-08-07T09:02:25;16.60;99.90
51855;DHT22;37895;53.240;6.572;2023-08-07T09:04:51;16.60;99.90
51855;DHT22;37895;53.240;6.572;2023-08-07T09:07:19;16.80;99.90
51855;DHT22;37895;53.240;6.572;2023-08-07T09:09:46;16.90;99.90
51855;DHT22;37895;53.240;6.572;2023-08-07T09:12:25;16.90;99.90
51855;DHT22;37895;53.240;6.572;2023-08-07T09:14:56;17.00;99.90
51855;DHT22;37895;53.240;6.572;2023-08-07T09:17:28;17.20;99.90
51855;DHT22;37895;53.240;6.572;2023-08-07T09:19:54;17.30;99.90
51855;DHT22;37895;53.240;6.572;2023-08-07T09:22:21;17.30;99.90
51855;DHT22;37895;53.240;6.572;2023-08-07T09:24:47;17.20;99.90
51855;DHT22;37895;53.240;6.572;2023-08-07T09:27:13;17.10;99.90
51855;DHT22;37895;53.240;6.572;2023-08-07T09:29:43;17.20;99.90
51855;DHT22;37895;53.240;6.572;2023-08-07T09:32:12;17.40;99.90
51855;DHT22;37895;53.240;6.572;2023-08-07T09:34:41;17.30;99.90
51855;DHT22;37895;53.240;6.572;2023-08-07T09:37:08;17.10;99.90
51855;DHT22;37895;53.240;6.572;2023-08-07T09:39:34;17.10;99.90
51855;DHT22;37895;53.240;6.572;2023-08-07T09:42:01;17.00;99.90
51855;DHT22;37895;53.240;6.572;2023-08-07T09:44:34;17.10;99.90
51855;DHT22;37895;53.240;6.572;2023-08-07T09:47:00;17.10;99.90
51855;DHT22;37895;53.240;6.572;2023-08-07T09:49:32;17.20;99.90
51855;DHT22;37895;53.240;6.572;2023-08-07T09:51:58;17.50;99.90
51855;DHT22;37895;53.240;6.572;2023-08-07T09:54:24;17.70;99.90
51855;DHT22;37895;53.240;6.572;2023-08-07T09:56:49;17.70;99.90
51855;DHT22;37895;53.240;6.572;2023-08-07T09:59:15;17.70;99.90
51855;DHT22;37895;53.240;6.572;2023-08-07T10:01:42;17.60;99.90
51855;DHT22;37895;53.240;6.572;2023-08-07T10:04:09;17.40;99.90
51855;DHT22;37895;53.240;6.572;2023-08-07T10:06:43;17.40;99.90
51855;DHT22;37895;53.240;6.572;2023-08-07T10:09:09;17.20;99.90
51855;DHT22;37895;53.240;6.572;2023-08-07T10:11:34;17.30;99.90
51855;DHT22;37895;53.240;6.572;2023-08-07T10:14:00;17.30;99.90
51855;DHT22;37895;53.240;6.572;2023-08-07T10:16:27;17.30;99.90
51855;DHT22;37895;53.240;6.572;2023-08-07T10:18:53;17.30;99.90
51855;DHT22;37895;53.240;6.572;2023-08-07T10:21:19;17.40;99.90
51855;DHT22;37895;53.240;6.572;2023-08-07T10:23:46;17.40;99.90
51855;DHT22;37895;53.240;6.572;2023-08-07T10:26:13;17.40;99.90
51855;DHT22;37895;53.240;6.572;2023-08-07T10:28:40;17.50;99.90
51855;DHT22;37895;53.240;6.572;2023-08-07T10:31:07;17.70;99.90
51855;DHT22;37895;53.240;6.572;2023-08-07T10:33:35;17.70;99.90
51855;DHT22;37895;53.240;6.572;2023-08-07T10:36:01;17.70;99.90
51855;DHT22;37895;53.240;6.572;2023-08-07T10:38:33;17.70;99.90
51855;DHT22;37895;53.240;6.572;2023-08-07T10:41:13;17.80;99.90
51855;DHT22;37895;53.240;6.572;2023-08-07T10:43:40;17.90;99.90
51855;DHT22;37895;53.240;6.572;2023-08-07T10:46:10;17.80;99.90
51855;DHT22;37895;53.240;6.572;2023-08-07T10:48:46;17.70;99.90
51855;DHT22;37895;53.240;6.572;2023-08-07T10:51:13;17.80;99.90
51855;DHT22;37895;53.240;6.572;2023-08-07T10:53:47;17.90;99.90
51855;DHT22;37895;53.240;6.572;2023-08-07T10:56:31;17.80;99.90
51855;DHT22;37895;53.240;6.572;2023-08-07T10:58:57;17.90;99.90
51855;DHT22;37895;53.240;6.572;2023-08-07T11:04:11;17.80;99.90
51855;DHT22;37895;53.240;6.572;2023-08-07T11:06:38;17.90;99.90
51855;DHT22;37895;53.240;6.572;2023-08-07T11:09:08;18.20;99.90
51855;DHT22;37895;53.240;6.572;2023-08-07T11:11:38;18.20;99.90
51855;DHT22;37895;53.240;6.572;2023-08-07T11:14:08;18.30;99.90
51855;DHT22;37895;53.240;6.572;2023-08-07T11:16:35;18.20;99.90
51855;DHT22;37895;53.240;6.572;2023-08-07T11:19:01;18.00;99.90
51855;DHT22;37895;53.240;6.572;2023-08-07T11:21:27;17.60;99.90
51855;DHT22;37895;53.240;6.572;2023-08-07T11:23:52;17.60;99.90
51855;DHT22;37895;53.240;6.572;2023-08-07T11:26:18;17.30;99.90
51855;DHT22;37895;53.240;6.572;2023-08-07T11:28:47;17.30;99.90
51855;DHT22;37895;53.240;6.572;2023-08-07T11:31:13;17.30;99.90
51855;DHT22;37895;53.240;6.572;2023-08-07T11:33:40;17.20;99.90
51855;DHT22;37895;53.240;6.572;2023-08-07T11:36:13;17.20;99.90
51855;DHT22;37895;53.240;6.572;2023-08-07T11:38:40;17.10;99.90
51855;DHT22;37895;53.240;6.572;2023-08-07T11:41:14;17.00;99.90
51855;DHT22;37895;53.240;6.572;2023-08-07T11:43:40;17.10;99.90
51855;DHT22;37895;53.240;6.572;2023-08-07T11:46:06;17.30;99.90
51855;DHT22;37895;53.240;6.572;2023-08-07T11:48:34;17.40;99.90
51855;DHT22;37895;53.240;6.572;2023-08-07T11:51:01;17.30;99.90
51855;DHT22;37895;53.240;6.572;2023-08-07T11:53:29;17.50;99.90
51855;DHT22;37895;53.240;6.572;2023-08-07T11:55:57;17.60;99.90
51855;DHT22;37895;53.240;6.572;2023-08-07T11:58:25;17.60;99.90
51855;DHT22;37895;53.240;6.572;2023-08-07T12:00:50;17.60;99.90
51855;DHT22;37895;53.240;6.572;2023-08-07T12:03:34;17.70;99.90
51855;DHT22;37895;53.240;6.572;2023-08-07T12:06:03;17.80;99.90
51855;DHT22;37895;53.240;6.572;2023-08-07T12:08:34;17.90;99.90
51855;DHT22;37895;53.240;6.572;2023-08-07T12:11:04;17.90;99.90
51855;DHT22;37895;53.240;6.572;2023-08-07T12:13:31;17.80;99.90
51855;DHT22;37895;53.240;6.572;2023-08-07T12:16:00;17.60;99.90
51855;DHT22;37895;53.240;6.572;2023-08-07T12:18:26;17.50;99.90
51855;DHT22;37895;53.240;6.572;2023-08-07T12:20:56;17.40;99.90
51855;DHT22;37895;53.240;6.572;2023-08-07T12:23:22;17.40;99.90
51855;DHT22;37895;53.240;6.572;2023-08-07T12:25:48;17.50;99.90
51855;DHT22;37895;53.240;6.572;2023-08-07T12:28:15;17.40;99.90
51855;DHT22;37895;53.240;6.572;2023-08-07T12:30:46;17.40;99.90
51855;DHT22;37895;53.240;6.572;2023-08-07T12:33:13;17.50;99.90
51855;DHT22;37895;53.240;6.572;2023-08-07T12:35:40;17.70;99.90
51855;DHT22;37895;53.240;6.572;2023-08-07T12:38:06;17.80;99.90
51855;DHT22;37895;53.240;6.572;2023-08-07T12:40:31;17.90;99.90
51855;DHT22;37895;53.240;6.572;2023-08-07T12:43:00;18.00;99.90
51855;DHT22;37895;53.240;6.572;2023-08-07T12:45:26;18.20;99.90
51855;DHT22;37895;53.240;6.572;2023-08-07T12:47:52;18.30;99.90
51855;DHT22;37895;53.240;6.572;2023-08-07T12:50:17;18.30;99.90
51855;DHT22;37895;53.240;6.572;2023-08-07T12:52:43;18.60;99.90
51855;DHT22;37895;53.240;6.572;2023-08-07T12:55:10;18.80;99.90
51855;DHT22;37895;53.240;6.572;2023-08-07T12:57:41;19.00;99.90
51855;DHT22;37895;53.240;6.572;2023-08-07T13:00:09;19.20;99.90
51855;DHT22;37895;53.240;6.572;2023-08-07T13:02:38;19.00;99.90
51855;DHT22;37895;53.240;6.572;2023-08-07T13:05:04;19.10;99.90
51855;DHT22;37895;53.240;6.572;2023-08-07T13:07:30;19.20;99.90
51855;DHT22;37895;53.240;6.572;2023-08-07T13:09:56;19.20;99.90
51855;DHT22;37895;53.240;6.572;2023-08-07T13:12:22;19.00;99.90
51855;DHT22;37895;53.240;6.572;2023-08-07T13:14:48;18.90;99.90
51855;DHT22;37895;53.240;6.572;2023-08-07T13:17:14;19.00;99.90
51855;DHT22;37895;53.240;6.572;2023-08-07T13:19:39;18.80;99.90
51855;DHT22;37895;53.240;6.572;2023-08-07T13:22:05;18.60;99.90
51855;DHT22;37895;53.240;6.572;2023-08-07T13:24:31;18.40;99.90
51855;DHT22;37895;53.240;6.572;2023-08-07T13:26:57;18.40;99.90
51855;DHT22;37895;53.240;6.572;2023-08-07T13:29:22;18.50;99.90
51855;DHT22;37895;53.240;6.572;2023-08-07T13:31:48;18.50;99.90
51855;DHT22;37895;53.240;6.572;2023-08-07T13:34:14;18.40;99.90
51855;DHT22;37895;53.240;6.572;2023-08-07T13:36:40;18.60;99.90
51855;DHT22;37895;53.240;6.572;2023-08-07T13:39:06;18.80;99.90
51855;DHT22;37895;53.240;6.572;2023-08-07T13:41:32;19.10;99.90
51855;DHT22;37895;53.240;6.572;2023-08-07T13:44:00;19.10;99.90
51855;DHT22;37895;53.240;6.572;2023-08-07T13:46:26;19.00;99.90
51855;DHT22;37895;53.240;6.572;2023-08-07T13:48:52;19.10;99.90
51855;DHT22;37895;53.240;6.572;2023-08-07T13:51:17;19.20;99.90
51855;DHT22;37895;53.240;6.572;2023-08-07T13:53:43;19.10;99.90
51855;DHT22;37895;53.240;6.572;2023-08-07T13:56:10;18.70;99.90
51855;DHT22;37895;53.240;6.572;2023-08-07T13:58:38;18.60;99.90
51855;DHT22;37895;53.240;6.572;2023-08-07T14:01:04;18.50;99.90
51855;DHT22;37895;53.240;6.572;2023-08-07T14:03:30;18.40;99.90
51855;DHT22;37895;53.240;6.572;2023-08-07T14:05:56;18.20;99.90
51855;DHT22;37895;53.240;6.572;2023-08-07T14:08:22;18.10;99.90
51855;DHT22;37895;53.240;6.572;2023-08-07T14:10:47;18.10;99.90
51855;DHT22;37895;53.240;6.572;2023-08-07T14:13:13;18.20;99.90
51855;DHT22;37895;53.240;6.572;2023-08-07T14:15:39;18.30;99.90
51855;DHT22;37895;53.240;6.572;2023-08-07T14:18:05;18.20;99.90
51855;DHT22;37895;53.240;6.572;2023-08-07T14:20:31;18.10;99.90
51855;DHT22;37895;53.240;6.572;2023-08-07T14:22:57;18.20;99.90
51855;DHT22;37895;53.240;6.572;2023-08-07T14:25:22;18.40;99.90
51855;DHT22;37895;53.240;6.572;2023-08-07T14:27:49;18.60;99.90
51855;DHT22;37895;53.240;6.572;2023-08-07T14:30:15;18.70;99.90
51855;DHT22;37895;53.240;6.572;2023-08-07T14:32:40;18.70;99.90
51855;DHT22;37895;53.240;6.572;2023-08-07T14:35:08;18.50;99.90
51855;DHT22;37895;53.240;6.572;2023-08-07T14:37:34;18.50;99.90
51855;DHT22;37895;53.240;6.572;2023-08-07T14:40:01;18.40;99.90
51855;DHT22;37895;53.240;6.572;2023-08-07T14:42:27;18.40;99.90
51855;DHT22;37895;53.240;6.572;2023-08-07T14:44:52;18.40;99.90
51855;DHT22;37895;53.240;6.572;2023-08-07T14:47:18;18.40;99.90
51855;DHT22;37895;53.240;6.572;2023-08-07T14:49:44;18.30;99.90
51855;DHT22;37895;53.240;6.572;2023-08-07T14:52:09;18.40;99.90
51855;DHT22;37895;53.240;6.572;2023-08-07T14:54:35;18.20;99.90
51855;DHT22;37895;53.240;6.572;2023-08-07T14:57:01;18.20;99.90
51855;DHT22;37895;53.240;6.572;2023-08-07T14:59:26;18.40;99.90
51855;DHT22;37895;53.240;6.572;2023-08-07T15:01:52;18.60;99.90
51855;DHT22;37895;53.240;6.572;2023-08-07T15:04:18;18.80;99.90
51855;DHT22;37895;53.240;6.572;2023-08-07T15:06:43;18.90;99.90
51855;DHT22;37895;53.240;6.572;2023-08-07T15:09:14;18.90;99.90
51855;DHT22;37895;53.240;6.572;2023-08-07T15:11:39;18.80;99.90
51855;DHT22;37895;53.240;6.572;2023-08-07T15:14:05;18.60;99.90
51855;DHT22;37895;53.240;6.572;2023-08-07T15:16:31;18.70;99.90
51855;DHT22;37895;53.240;6.572;2023-08-07T15:18:57;18.70;99.90
51855;DHT22;37895;53.240;6.572;2023-08-07T15:21:22;18.60;99.90
51855;DHT22;37895;53.240;6.572;2023-08-07T15:23:48;18.50;99.90
51855;DHT22;37895;53.240;6.572;2023-08-07T15:26:13;18.50;99.90
51855;DHT22;37895;53.240;6.572;2023-08-07T15:28:39;18.50;99.90
51855;DHT22;37895;53.240;6.572;2023-08-07T15:31:05;18.50;99.90
51855;DHT22;37895;53.240;6.572;2023-08-07T15:33:31;18.40;99.90